createdAt,value
2022-09-23T00:01:37.563Z,6.37
2022-09-23T00:06:59.248Z,5.20
2022-09-23T00:12:20.823Z,6.47
2022-09-23T00:17:43.322Z,6.40
2022-09-23T00:23:04.928Z,7.17
2022-09-23T00:28:28.548Z,8.10
2022-09-23T00:33:53.696Z,7.20
2022-09-23T00:39:15.316Z,8.67
2022-09-23T00:44:46.240Z,6.00
2022-09-23T00:50:12.332Z,6.67
2022-09-23T00:55:38.451Z,5.73
2022-09-23T01:01:00.536Z,9.40
2022-09-23T01:06:22.896Z,7.17
2022-09-23T01:11:49.341Z,8.33
2022-09-23T01:17:14.573Z,8.83
2022-09-23T01:22:41.926Z,9.03
2022-09-23T01:28:29.040Z,8.87
2022-09-23T01:33:54.338Z,9.53
2022-09-23T01:39:21.237Z,9.43
2022-09-23T01:44:46.899Z,7.17
2022-09-23T01:50:29.081Z,9.43
2022-09-23T01:55:56.508Z,12.90
2022-09-23T02:01:21.456Z,9.20
2022-09-23T02:06:46.825Z,10.97
2022-09-23T02:12:11.996Z,36.87
2022-09-23T02:17:36.593Z,7.13
2022-09-23T02:23:02.555Z,10.60
2022-09-23T02:28:30.505Z,8.30
2022-09-23T02:33:55.222Z,6.67
2022-09-23T02:39:17.893Z,12.10
2022-09-23T02:44:39.871Z,6.87
2022-09-23T02:50:01.587Z,8.17
2022-09-23T02:55:25.208Z,10.67
2022-09-23T03:00:50.784Z,5.27
2022-09-23T03:06:21.787Z,9.70
2022-09-23T03:11:46.839Z,13.13
2022-09-23T03:17:15.208Z,7.43
2022-09-23T03:22:40.548Z,7.90
2022-09-23T03:28:03.328Z,7.70
2022-09-23T03:33:28.836Z,10.13
2022-09-23T03:38:57.358Z,6.73
2022-09-23T03:44:20.631Z,8.93
2022-09-23T03:49:43.476Z,6.80
2022-09-23T03:55:05.997Z,8.93
2022-09-23T04:00:28.316Z,9.60
2022-09-23T04:05:49.895Z,6.13
2022-09-23T04:11:11.514Z,11.83
2022-09-23T04:16:33.828Z,5.80
2022-09-23T04:21:55.554Z,12.97
2022-09-23T04:27:17.177Z,5.60
2022-09-23T04:32:39.555Z,8.50
2022-09-23T04:38:01.137Z,10.80
2022-09-23T04:43:22.942Z,6.10
2022-09-23T04:48:45.210Z,6.47
2022-09-23T04:54:06.899Z,7.17
2022-09-23T04:59:29.432Z,6.00
2022-09-23T05:04:51.724Z,9.50
2022-09-23T05:10:13.638Z,8.63
2022-09-23T05:15:35.311Z,7.77
2022-09-23T05:20:57.889Z,7.17
2022-09-23T05:26:20.223Z,9.67
2022-09-23T05:31:41.910Z,10.17
2022-09-23T05:37:04.540Z,6.37
2022-09-23T05:42:27.555Z,7.53
2022-09-23T05:47:49.243Z,10.03
2022-09-23T05:53:11.585Z,9.27
2022-09-23T05:58:33.356Z,9.43
2022-09-23T06:03:56.238Z,8.60
2022-09-23T06:09:18.557Z,11.43
2022-09-23T06:14:40.463Z,10.57
2022-09-23T06:20:02.068Z,10.20
2022-09-23T06:25:24.409Z,11.80
2022-09-23T06:30:46.450Z,14.07
2022-09-23T06:36:08.627Z,11.27
2022-09-23T06:41:30.928Z,12.00
2022-09-23T06:46:53.246Z,12.70
2022-09-23T06:52:14.930Z,9.73
2022-09-23T06:57:37.195Z,17.47
2022-09-23T07:02:58.915Z,12.03
2022-09-23T07:08:20.627Z,16.13
2022-09-23T07:13:42.948Z,13.30
2022-09-23T07:19:04.692Z,14.93
2022-09-23T07:24:27.192Z,10.80
2022-09-23T07:29:50.302Z,13.77
2022-09-23T07:35:11.944Z,16.13
2022-09-23T07:40:33.668Z,15.97
2022-09-23T07:45:56.253Z,15.80
2022-09-23T07:51:19.902Z,14.80
2022-09-23T07:56:42.219Z,17.23
2022-09-23T08:02:04.837Z,19.07
2022-09-23T08:07:26.798Z,19.17
2022-09-23T08:12:48.406Z,24.97
2022-09-23T08:18:10.734Z,17.83
2022-09-23T08:23:33.184Z,20.10
2022-09-23T08:28:55.720Z,14.63
2022-09-23T08:34:19.315Z,23.83
2022-09-23T08:39:40.951Z,16.10
2022-09-23T08:45:05.331Z,15.00
2022-09-23T08:50:31.195Z,14.53
2022-09-23T08:55:54.498Z,12.60
2022-09-23T09:01:22.708Z,15.90
2022-09-23T09:06:53.477Z,14.40
2022-09-23T09:12:18.046Z,13.93
2022-09-23T09:17:47.439Z,15.17
2022-09-23T09:23:19.746Z,15.87
2022-09-23T09:28:44.874Z,11.93
2022-09-23T09:34:16.143Z,14.80
2022-09-23T09:39:38.431Z,14.40
2022-09-23T09:45:01.719Z,23.07
2022-09-23T09:50:42.507Z,12.80
2022-09-23T09:56:06.938Z,11.47
2022-09-23T10:01:30.240Z,13.77
2022-09-23T10:07:13.414Z,13.60
2022-09-23T10:12:43.510Z,12.77
2022-09-23T10:18:18.874Z,12.80
2022-09-23T10:23:42.137Z,14.67
2022-09-23T10:29:20.300Z,19.43
2022-09-23T10:34:43.974Z,16.53
2022-09-23T10:40:39.250Z,15.00
2022-09-23T10:46:22.019Z,13.67
2022-09-23T10:51:50.780Z,18.13
2022-09-23T10:57:39.828Z,15.43
2022-09-23T11:03:15.226Z,16.13
2022-09-23T11:08:53.493Z,23.47
2022-09-23T11:14:38.011Z,16.50
2022-09-23T11:20:15.618Z,15.97
2022-09-23T11:25:43.125Z,20.50
2022-09-23T11:31:14.873Z,13.77
2022-09-23T11:36:40.567Z,25.57
2022-09-23T11:42:02.813Z,15.00
2022-09-23T11:47:28.608Z,16.03
2022-09-23T11:52:57.836Z,14.77
2022-09-23T11:58:25.925Z,10.77
2022-09-23T12:03:51.722Z,14.00
2022-09-23T12:09:31.026Z,16.47
2022-09-23T12:15:04.543Z,14.93
2022-09-23T12:20:44.828Z,14.13
2022-09-23T12:26:09.085Z,12.23
2022-09-23T12:31:33.046Z,17.57
2022-09-23T12:37:04.259Z,10.30
2022-09-23T12:42:30.807Z,14.30
2022-09-23T12:47:52.962Z,16.90
2022-09-23T12:53:54.613Z,18.20
2022-09-23T12:59:27.349Z,15.00
2022-09-23T13:05:14.143Z,11.20
2022-09-23T13:10:41.834Z,15.00
2022-09-23T13:16:20.255Z,10.87
2022-09-23T13:22:12.337Z,9.33
2022-09-23T13:27:35.357Z,9.93
2022-09-23T13:33:05.090Z,12.80
2022-09-23T13:38:30.797Z,12.33
2022-09-23T13:43:55.220Z,14.87
2022-09-23T13:49:23.628Z,15.03
2022-09-23T13:54:48.343Z,12.27
2022-09-23T14:00:17.065Z,16.23
2022-09-23T14:05:39.510Z,15.67
2022-09-23T14:11:04.399Z,16.23
2022-09-23T14:16:27.335Z,15.87
2022-09-23T14:21:50.620Z,18.37
2022-09-23T14:27:15.115Z,16.40
2022-09-23T14:32:39.204Z,17.40
2022-09-23T14:38:19.619Z,15.73
2022-09-23T14:43:46.876Z,19.73
2022-09-23T14:49:16.002Z,17.53
2022-09-23T14:54:41.771Z,16.43
2022-09-23T15:00:13.593Z,16.67
2022-09-23T15:05:40.997Z,15.93
2022-09-23T15:11:07.811Z,19.83
2022-09-23T15:16:30.532Z,16.30
2022-09-23T15:21:53.560Z,13.97
2022-09-23T15:27:30.432Z,15.03
2022-09-23T15:32:52.895Z,11.90
2022-09-23T15:38:16.711Z,17.43
2022-09-23T15:43:41.083Z,12.80
2022-09-23T15:49:05.223Z,16.40
2022-09-23T15:54:27.380Z,16.03
2022-09-23T15:59:49.651Z,17.47
2022-09-23T16:05:17.727Z,15.77
2022-09-23T16:10:39.811Z,15.90
2022-09-23T16:16:02.269Z,16.80
2022-09-23T16:21:25.828Z,20.17
2022-09-23T16:26:47.913Z,17.27
2022-09-23T16:32:10.338Z,27.33
2022-09-23T16:37:31.986Z,19.93
2022-09-23T16:42:55.145Z,15.43
2022-09-23T16:48:18.977Z,15.00
2022-09-23T16:53:41.680Z,20.57
2022-09-23T16:59:03.926Z,15.17
2022-09-23T17:04:26.848Z,18.80
2022-09-23T17:09:49.915Z,19.53
2022-09-23T17:15:12.132Z,17.27
2022-09-23T17:20:34.894Z,21.97
2022-09-23T17:25:57.051Z,20.37
2022-09-23T17:31:18.739Z,20.40
2022-09-23T17:36:41.351Z,18.00
2022-09-23T17:42:03.533Z,18.23
2022-09-23T17:47:25.415Z,16.80
2022-09-23T17:52:47.756Z,13.53
2022-09-23T17:58:09.633Z,19.03
2022-09-23T18:03:31.751Z,12.50
2022-09-23T18:08:55.221Z,15.23
2022-09-23T18:14:18.090Z,11.50
2022-09-23T18:19:39.738Z,12.07
2022-09-23T18:25:17.372Z,20.37
2022-09-23T18:30:52.303Z,10.70
2022-09-23T18:36:13.894Z,11.80
2022-09-23T18:41:36.255Z,8.93
2022-09-23T18:46:57.926Z,8.80
2022-09-23T18:52:20.348Z,8.67
2022-09-23T18:57:42.639Z,11.87
2022-09-23T19:03:04.292Z,14.60
2022-09-23T19:08:26.063Z,12.60
2022-09-23T19:13:53.396Z,15.43
2022-09-23T19:19:15.019Z,12.40
2022-09-23T19:24:36.614Z,12.90
2022-09-23T19:29:59.055Z,14.30
2022-09-23T19:35:20.627Z,14.87
2022-09-23T19:40:45.454Z,12.67
2022-09-23T19:46:10.008Z,11.10
2022-09-23T19:51:33.243Z,9.60
2022-09-23T19:56:54.939Z,13.57
2022-09-23T20:02:17.287Z,11.53
2022-09-23T20:07:40.586Z,14.53
2022-09-23T20:13:02.356Z,17.37
2022-09-23T20:18:24.759Z,24.97
2022-09-23T20:23:46.409Z,21.03
2022-09-23T20:29:09.902Z,23.57
2022-09-23T20:34:32.885Z,23.33
2022-09-23T20:39:54.503Z,28.63
2022-09-23T20:45:17.006Z,31.90
2022-09-23T20:50:41.127Z,37.03
2022-09-23T20:56:05.153Z,21.77
2022-09-23T21:01:26.951Z,20.60
2022-09-23T21:06:49.279Z,14.20
2022-09-23T21:12:10.966Z,9.17
2022-09-23T21:17:32.799Z,8.17
2022-09-23T21:22:56.433Z,12.10
2022-09-23T21:28:18.193Z,13.33
2022-09-23T21:33:40.063Z,14.60
2022-09-23T21:39:02.579Z,13.23
2022-09-23T21:44:24.740Z,13.00
2022-09-23T21:49:50.678Z,13.73
2022-09-23T21:55:13.468Z,13.63
2022-09-23T22:00:35.204Z,15.60
2022-09-23T22:06:02.115Z,9.77
2022-09-23T22:11:43.169Z,14.03
2022-09-23T22:17:06.177Z,11.57
2022-09-23T22:22:27.814Z,8.03
2022-09-23T22:28:08.172Z,9.97
2022-09-23T22:33:29.815Z,8.70
2022-09-23T22:38:58.867Z,10.40
2022-09-23T22:44:21.667Z,8.67
2022-09-23T22:49:43.319Z,10.03
2022-09-23T22:55:07.149Z,9.63
2022-09-23T23:00:29.813Z,15.30
2022-09-23T23:05:52.244Z,14.47
2022-09-23T23:11:13.868Z,16.30
2022-09-23T23:16:36.461Z,18.23
2022-09-23T23:21:58.090Z,14.63
2022-09-23T23:27:19.920Z,20.87
2022-09-23T23:32:42.181Z,22.17
2022-09-23T23:38:05.050Z,25.80
2022-09-23T23:43:26.670Z,23.30
2022-09-23T23:48:48.912Z,25.97
2022-09-23T23:54:11.132Z,29.33
2022-09-23T23:59:33.599Z,32.83
